Time;durP1;ratioP1;P1;durP2;ratioP2;P2;SDS_P1;SDS_P2;PMS_P1;PMS_P2;Temp;Humidity;BMP_temperature;BMP_pressure;BME280_temperature;BME280_humidity;BME280_pressure;Samples;Min_cycle;Max_cycle;Signal;HPM_P1;HPM_P2
2023/03/18 00:00:10;;;;;;;10.17;3.67;;;;;;;;;;5017051;28;20036;-77
2023/03/18 00:02:37;;;;;;;7.47;3.00;;;;;;;;;;5005900;28;20025;-76
2023/03/18 00:05:06;;;;;;;8.47;2.70;;;;;;;;;;5032331;28;20033;-77
2023/03/18 00:07:33;;;;;;;9.40;3.10;;;;;;;;;;5026977;28;20033;-76
2023/03/18 00:10:00;;;;;;;9.30;3.30;;;;;;;;;;5032261;28;20453;-76
2023/03/18 00:12:26;;;;;;;7.90;3.30;;;;;;;;;;5042232;28;20230;-77
2023/03/18 00:14:52;;;;;;;15.73;4.20;;;;;;;;;;5035225;28;20097;-76
2023/03/18 00:17:19;;;;;;;4.73;2.77;;;;;;;;;;5020089;28;20060;-75
2023/03/18 00:19:45;;;;;;;9.63;3.53;;;;;;;;;;5019898;28;20025;-76
2023/03/18 00:22:11;;;;;;;10.27;3.33;;;;;;;;;;5027782;28;20029;-77
2023/03/18 00:24:37;;;;;;;8.33;3.83;;;;;;;;;;5035780;28;20088;-76
2023/03/18 00:27:03;;;;;;;7.17;3.90;;;;;;;;;;5038007;28;20069;-76
2023/03/18 00:29:30;;;;;;;7.97;3.77;;;;;;;;;;5029518;28;20029;-76
2023/03/18 00:31:58;;;;;;;8.57;4.07;;;;;;;;;;5029548;28;20105;-76
2023/03/18 00:34:25;;;;;;;11.40;4.40;;;;;;;;;;5036864;28;20029;-76
2023/03/18 00:36:55;;;;;;;11.77;4.67;;;;;;;;;;5033281;28;20165;-76
2023/03/18 00:39:25;;;;;;;8.47;4.10;;;;;;;;;;5035344;28;20036;-76
2023/03/18 00:41:53;;;;;;;10.17;4.93;;;;;;;;;;5019700;28;20025;-76
2023/03/18 00:44:19;;;;;;;7.87;4.30;;;;;;;;;;5035152;28;20029;-76
2023/03/18 00:46:45;;;;;;;7.67;4.07;;;;;;;;;;5036640;28;20033;-77
2023/03/18 00:49:16;;;;;;;13.63;4.70;;;;;;;;;;5025937;28;20043;-76
2023/03/18 00:51:42;;;;;;;12.37;5.30;;;;;;;;;;5029816;28;20025;-76
2023/03/18 00:54:11;;;;;;;8.53;4.40;;;;;;;;;;5026859;28;20422;-75
2023/03/18 00:56:37;;;;;;;8.80;4.43;;;;;;;;;;5026399;28;20022;-76
2023/03/18 00:59:09;;;;;;;12.37;5.03;;;;;;;;;;5025716;28;20099;-77
2023/03/18 01:01:36;;;;;;;9.60;4.37;;;;;;;;;;5024300;28;20037;-77
2023/03/18 01:04:03;;;;;;;11.23;4.33;;;;;;;;;;5027085;28;20029;-75
2023/03/18 01:06:30;;;;;;;12.23;4.97;;;;;;;;;;5026107;28;20116;-77
2023/03/18 01:08:57;;;;;;;11.23;5.27;;;;;;;;;;5011845;28;20044;-77
2023/03/18 01:11:23;;;;;;;8.70;4.00;;;;;;;;;;5025012;28;20029;-76
2023/03/18 01:13:49;;;;;;;13.20;4.70;;;;;;;;;;5012080;28;20111;-76
2023/03/18 01:16:16;;;;;;;10.67;4.53;;;;;;;;;;5012021;28;20099;-75
2023/03/18 01:18:42;;;;;;;14.37;4.43;;;;;;;;;;5024351;28;20033;-76
2023/03/18 01:21:09;;;;;;;14.80;4.93;;;;;;;;;;5012055;28;20052;-76
2023/03/18 01:23:35;;;;;;;10.03;4.27;;;;;;;;;;5011708;28;20040;-76
2023/03/18 01:26:02;;;;;;;9.97;4.37;;;;;;;;;;5026131;28;20026;-76
2023/03/18 01:28:28;;;;;;;11.60;4.43;;;;;;;;;;5009906;28;20050;-76
2023/03/18 01:30:56;;;;;;;12.67;4.93;;;;;;;;;;5025040;28;20029;-76
2023/03/18 01:33:22;;;;;;;12.57;5.00;;;;;;;;;;5025598;28;20477;-76
2023/03/18 01:35:53;;;;;;;14.67;4.60;;;;;;;;;;5007566;28;20091;-75
2023/03/18 01:38:19;;;;;;;13.60;5.57;;;;;;;;;;5010631;28;20041;-75
2023/03/18 01:40:47;;;;;;;13.83;5.63;;;;;;;;;;5011198;28;20033;-76
2023/03/18 01:43:13;;;;;;;8.23;4.70;;;;;;;;;;5011787;28;20072;-74
2023/03/18 01:45:40;;;;;;;14.47;5.97;;;;;;;;;;5012724;28;20128;-75
2023/03/18 01:48:06;;;;;;;15.70;5.50;;;;;;;;;;5026385;28;20056;-76
2023/03/18 01:50:36;;;;;;;12.50;5.30;;;;;;;;;;5022801;28;20057;-74
2023/03/18 01:53:05;;;;;;;10.80;5.30;;;;;;;;;;5023486;28;20034;-75
2023/03/18 01:55:32;;;;;;;10.57;5.60;;;;;;;;;;5025752;28;20120;-76
2023/03/18 01:58:00;;;;;;;9.33;5.13;;;;;;;;;;5011341;28;20033;-76
2023/03/18 02:00:27;;;;;;;13.43;5.00;;;;;;;;;;5006939;28;20041;-76
2023/03/18 02:02:53;;;;;;;12.73;5.73;;;;;;;;;;5009674;28;20030;-76
2023/03/18 02:05:21;;;;;;;15.83;6.10;;;;;;;;;;5025189;28;20038;-75
2023/03/18 02:07:50;;;;;;;13.30;5.37;;;;;;;;;;5015061;28;20033;-76
2023/03/18 02:10:21;;;;;;;12.57;5.63;;;;;;;;;;5024216;28;20032;-77
2023/03/18 02:12:57;;;;;;;12.57;5.57;;;;;;;;;;5010212;28;21614;-76
2023/03/18 02:15:25;;;;;;;11.87;5.73;;;;;;;;;;5012695;28;20033;-77
2023/03/18 02:17:54;;;;;;;13.00;6.33;;;;;;;;;;5024064;28;20172;-75
2023/03/18 02:20:23;;;;;;;15.63;6.40;;;;;;;;;;5012372;28;20101;-76
2023/03/18 02:22:52;;;;;;;12.33;6.77;;;;;;;;;;5023593;28;20106;-75
2023/03/18 02:25:37;;;;;;;14.30;6.20;;;;;;;;;;5011264;28;20069;-74
2023/03/18 02:28:06;;;;;;;13.73;7.03;;;;;;;;;;5023141;28;20045;-75
2023/03/18 02:30:34;;;;;;;15.20;7.00;;;;;;;;;;5011688;28;20026;-75
2023/03/18 02:33:01;;;;;;;15.03;6.93;;;;;;;;;;5012451;28;20031;-75
2023/03/18 02:35:29;;;;;;;13.47;6.93;;;;;;;;;;5013147;28;20030;-75
2023/03/18 02:37:55;;;;;;;13.53;6.77;;;;;;;;;;5012469;28;20451;-74
2023/03/18 02:40:24;;;;;;;22.80;8.97;;;;;;;;;;5010921;28;20113;-77
2023/03/18 02:42:53;;;;;;;13.27;7.10;;;;;;;;;;5009337;28;20026;-76
2023/03/18 02:45:25;;;;;;;12.20;7.77;;;;;;;;;;5005467;28;20065;-76
2023/03/18 02:47:52;;;;;;;16.70;8.13;;;;;;;;;;5010945;28;20037;-77
2023/03/18 02:50:19;;;;;;;15.87;7.83;;;;;;;;;;5024724;28;20187;-76
2023/03/18 02:52:45;;;;;;;13.33;7.07;;;;;;;;;;5016216;28;20030;-76
2023/03/18 02:55:11;;;;;;;14.73;8.33;;;;;;;;;;5019284;28;20033;-76
2023/03/18 02:57:37;;;;;;;15.17;8.37;;;;;;;;;;5008025;28;20469;-76
2023/03/18 03:00:04;;;;;;;19.70;9.30;;;;;;;;;;5026618;28;20034;-77
2023/03/18 03:02:30;;;;;;;16.80;8.43;;;;;;;;;;5012846;28;20029;-76
2023/03/18 03:04:56;;;;;;;17.40;9.40;;;;;;;;;;5019893;28;20033;-76
2023/03/18 03:07:25;;;;;;;16.50;9.20;;;;;;;;;;4999946;28;20324;-75
2023/03/18 03:09:51;;;;;;;18.77;8.87;;;;;;;;;;5021314;28;20033;-76
2023/03/18 03:12:17;;;;;;;11.47;8.40;;;;;;;;;;5020483;28;20021;-75
2023/03/18 03:14:43;;;;;;;15.83;8.63;;;;;;;;;;5028424;28;20032;-76
2023/03/18 03:17:09;;;;;;;17.07;9.53;;;;;;;;;;5035603;28;20014;-76
2023/03/18 03:19:37;;;;;;;18.60;9.73;;;;;;;;;;5021683;28;20033;-75
2023/03/18 03:22:05;;;;;;;21.13;9.83;;;;;;;;;;5039233;28;20029;-76
2023/03/18 03:24:31;;;;;;;18.37;9.77;;;;;;;;;;5020117;28;20462;-76
2023/03/18 03:26:57;;;;;;;20.27;10.53;;;;;;;;;;5019320;28;20056;-76
2023/03/18 03:29:23;;;;;;;17.67;11.13;;;;;;;;;;5008910;28;20021;-76
2023/03/18 03:31:50;;;;;;;17.53;11.47;;;;;;;;;;5012981;28;20111;-76
2023/03/18 03:34:16;;;;;;;17.50;10.80;;;;;;;;;;5007806;28;20092;-76
2023/03/18 03:36:43;;;;;;;20.33;11.20;;;;;;;;;;5028731;28;20026;-76
2023/03/18 03:39:12;;;;;;;19.83;11.37;;;;;;;;;;5017596;28;20484;-76
2023/03/18 03:41:38;;;;;;;26.17;12.87;;;;;;;;;;5019949;28;20030;-76
2023/03/18 03:44:04;;;;;;;22.83;12.87;;;;;;;;;;5028483;28;20056;-77
2023/03/18 03:46:30;;;;;;;23.83;13.83;;;;;;;;;;5003544;28;20057;-76
2023/03/18 03:48:56;;;;;;;25.27;12.47;;;;;;;;;;5013288;28;20026;-76
2023/03/18 03:51:22;;;;;;;27.63;13.20;;;;;;;;;;5034989;28;20033;-76
2023/03/18 03:53:49;;;;;;;24.17;12.93;;;;;;;;;;5007250;28;20080;-76
2023/03/18 03:56:17;;;;;;;27.00;14.80;;;;;;;;;;5011726;28;20025;-76
2023/03/18 03:58:44;;;;;;;30.37;15.10;;;;;;;;;;5015702;28;20072;-76
2023/03/18 04:01:11;;;;;;;23.17;14.43;;;;;;;;;;5005621;28;20026;-75
2023/03/18 04:03:39;;;;;;;25.57;13.47;;;;;;;;;;5001607;28;20044;-75
2023/03/18 04:06:06;;;;;;;22.77;13.50;;;;;;;;;;5013752;28;20037;-76
2023/03/18 04:08:32;;;;;;;29.30;14.17;;;;;;;;;;5032230;28;20057;-76
2023/03/18 04:10:58;;;;;;;24.33;13.37;;;;;;;;;;5015887;28;20099;-75
2023/03/18 04:13:24;;;;;;;21.77;13.20;;;;;;;;;;5007756;28;20509;-74
2023/03/18 04:15:53;;;;;;;19.30;12.97;;;;;;;;;;5004570;28;20030;-75
2023/03/18 04:18:20;;;;;;;20.50;12.57;;;;;;;;;;5005983;28;20029;-75
2023/03/18 04:20:46;;;;;;;23.10;13.63;;;;;;;;;;5021091;28;20025;-76
2023/03/18 04:23:15;;;;;;;19.93;12.97;;;;;;;;;;5011117;28;20109;-76
2023/03/18 04:25:41;;;;;;;19.90;12.70;;;;;;;;;;5019276;28;20117;-75
2023/03/18 04:28:07;;;;;;;23.20;13.17;;;;;;;;;;5019672;28;20085;-76
2023/03/18 04:30:34;;;;;;;22.93;12.53;;;;;;;;;;5015043;28;20030;-76
2023/03/18 04:33:00;;;;;;;20.23;12.23;;;;;;;;;;5023169;28;20100;-76
2023/03/18 04:35:27;;;;;;;20.73;12.00;;;;;;;;;;5025416;28;20095;-76
2023/03/18 04:37:53;;;;;;;21.00;12.73;;;;;;;;;;5035803;28;20096;-76
2023/03/18 04:40:19;;;;;;;18.70;11.80;;;;;;;;;;5013478;28;20050;-75
2023/03/18 04:42:46;;;;;;;13.97;10.40;;;;;;;;;;5017922;28;20450;-75
2023/03/18 04:45:13;;;;;;;18.30;11.00;;;;;;;;;;5019210;28;20033;-75
2023/03/18 04:47:40;;;;;;;20.27;10.63;;;;;;;;;;5008047;28;20418;-76
2023/03/18 04:50:09;;;;;;;21.23;10.47;;;;;;;;;;5033083;28;20090;-75
2023/03/18 04:52:35;;;;;;;16.30;10.47;;;;;;;;;;5006281;28;20033;-77
2023/03/18 04:55:04;;;;;;;18.07;9.53;;;;;;;;;;5017716;28;20036;-77
2023/03/18 04:57:34;;;;;;;20.80;9.90;;;;;;;;;;5013628;28;20081;-76
2023/03/18 05:00:01;;;;;;;15.00;10.07;;;;;;;;;;5010948;28;20021;-76
2023/03/18 05:02:29;;;;;;;15.73;9.47;;;;;;;;;;5019108;28;20025;-75
2023/03/18 05:04:55;;;;;;;16.03;9.33;;;;;;;;;;5026726;28;20059;-76
2023/03/18 05:07:23;;;;;;;17.33;9.70;;;;;;;;;;5013501;28;20025;-75
2023/03/18 05:09:49;;;;;;;18.57;9.40;;;;;;;;;;5031159;28;20029;-77
2023/03/18 05:12:16;;;;;;;17.27;9.63;;;;;;;;;;5014094;28;20021;-77
2023/03/18 05:14:43;;;;;;;18.50;9.93;;;;;;;;;;5016476;28;20087;-75
2023/03/18 05:17:14;;;;;;;15.73;10.20;;;;;;;;;;5022067;28;20021;-76
2023/03/18 05:19:41;;;;;;;17.47;9.50;;;;;;;;;;5017006;28;20049;-76
2023/03/18 05:22:07;;;;;;;19.80;10.57;;;;;;;;;;5027029;28;20108;-76
2023/03/18 05:24:33;;;;;;;21.93;10.90;;;;;;;;;;5011968;28;20046;-76
2023/03/18 05:27:00;;;;;;;15.00;9.47;;;;;;;;;;5010467;28;20029;-76
2023/03/18 05:29:28;;;;;;;17.37;10.43;;;;;;;;;;5018697;28;20026;-76
2023/03/18 05:31:54;;;;;;;18.97;10.27;;;;;;;;;;5020033;28;20041;-74
2023/03/18 05:34:20;;;;;;;19.73;10.03;;;;;;;;;;5012999;28;20052;-75
2023/03/18 05:36:47;;;;;;;18.20;9.77;;;;;;;;;;5035462;28;20489;-77
2023/03/18 05:39:15;;;;;;;14.50;9.03;;;;;;;;;;5034455;28;20422;-75
2023/03/18 05:41:41;;;;;;;14.07;9.20;;;;;;;;;;5023647;28;20503;-75
2023/03/18 05:44:07;;;;;;;16.00;8.40;;;;;;;;;;5006833;28;20113;-77
2023/03/18 05:46:35;;;;;;;17.70;8.80;;;;;;;;;;5024655;28;20040;-77
2023/03/18 05:49:01;;;;;;;17.50;9.47;;;;;;;;;;5034627;28;20148;-77
2023/03/18 05:51:27;;;;;;;12.70;8.73;;;;;;;;;;5028790;28;20029;-76
2023/03/18 05:53:53;;;;;;;12.70;7.67;;;;;;;;;;5017906;28;20021;-77
2023/03/18 05:56:19;;;;;;;14.50;8.40;;;;;;;;;;5023679;28;20040;-76
2023/03/18 05:58:48;;;;;;;13.97;8.20;;;;;;;;;;5016280;28;20026;-76
2023/03/18 06:01:14;;;;;;;16.63;7.77;;;;;;;;;;5007971;28;20033;-77
2023/03/18 06:03:41;;;;;;;10.40;7.57;;;;;;;;;;5017955;28;20040;-76
2023/03/18 06:06:10;;;;;;;17.10;8.00;;;;;;;;;;5034166;28;20029;-76
2023/03/18 06:08:36;;;;;;;12.50;8.00;;;;;;;;;;5017347;28;20033;-76
2023/03/18 06:11:03;;;;;;;14.80;8.03;;;;;;;;;;5031502;28;20029;-76
2023/03/18 06:13:29;;;;;;;20.63;9.20;;;;;;;;;;5006251;28;20370;-75
2023/03/18 06:15:56;;;;;;;16.57;8.87;;;;;;;;;;5035300;28;20030;-76
2023/03/18 06:18:22;;;;;;;17.60;8.07;;;;;;;;;;5017870;28;20079;-76
2023/03/18 06:20:48;;;;;;;15.03;9.07;;;;;;;;;;5004943;28;20361;-77
2023/03/18 06:23:14;;;;;;;18.13;9.17;;;;;;;;;;5015579;28;20034;-75
2023/03/18 06:25:40;;;;;;;12.20;8.50;;;;;;;;;;5016972;28;20025;-75
2023/03/18 06:28:07;;;;;;;14.50;8.93;;;;;;;;;;5027113;28;20430;-76
2023/03/18 06:30:33;;;;;;;15.03;9.17;;;;;;;;;;5032702;28;20541;-76
2023/03/18 06:32:59;;;;;;;22.27;10.07;;;;;;;;;;5031603;28;20022;-76
2023/03/18 06:35:28;;;;;;;13.73;9.23;;;;;;;;;;5016157;28;20106;-77
2023/03/18 06:37:54;;;;;;;18.40;9.40;;;;;;;;;;5010013;28;20090;-76
2023/03/18 06:40:21;;;;;;;12.57;8.17;;;;;;;;;;5008881;28;20025;-76
2023/03/18 06:42:49;;;;;;;13.77;8.33;;;;;;;;;;5033830;28;20160;-77
2023/03/18 06:45:16;;;;;;;15.60;8.50;;;;;;;;;;5033769;28;20108;-76
2023/03/18 06:47:42;;;;;;;17.10;8.00;;;;;;;;;;5033815;28;20110;-76
2023/03/18 06:50:09;;;;;;;15.00;7.67;;;;;;;;;;5017014;28;20113;-75
2023/03/18 06:52:35;;;;;;;13.40;8.37;;;;;;;;;;5027537;28;20044;-75
2023/03/18 06:55:02;;;;;;;13.37;7.80;;;;;;;;;;5022088;28;20119;-75
2023/03/18 06:57:28;;;;;;;14.87;8.20;;;;;;;;;;5013371;28;20030;-76
2023/03/18 06:59:54;;;;;;;10.17;7.50;;;;;;;;;;5011570;28;21215;-75
2023/03/18 07:02:22;;;;;;;9.93;6.20;;;;;;;;;;5010451;28;20371;-76
2023/03/18 07:04:51;;;;;;;15.27;7.03;;;;;;;;;;5022679;28;20045;-75
2023/03/18 07:07:17;;;;;;;10.20;6.53;;;;;;;;;;5010976;28;20112;-75
2023/03/18 07:09:43;;;;;;;12.67;6.53;;;;;;;;;;5009979;28;20479;-77
2023/03/18 07:12:10;;;;;;;13.00;6.73;;;;;;;;;;5010663;28;20139;-75
2023/03/18 07:14:36;;;;;;;12.07;7.00;;;;;;;;;;5022886;28;20060;-76
2023/03/18 07:17:02;;;;;;;10.67;6.27;;;;;;;;;;5024369;28;20123;-76
2023/03/18 07:19:28;;;;;;;13.77;5.27;;;;;;;;;;5010302;28;20192;-76
2023/03/18 07:21:55;;;;;;;10.37;5.63;;;;;;;;;;5023942;28;20113;-76
2023/03/18 07:24:21;;;;;;;8.93;4.70;;;;;;;;;;5022617;28;20025;-75
2023/03/18 07:26:49;;;;;;;10.00;4.93;;;;;;;;;;5024683;28;20060;-76
2023/03/18 07:29:15;;;;;;;12.40;5.60;;;;;;;;;;5009123;28;20037;-77
2023/03/18 07:31:42;;;;;;;8.63;5.17;;;;;;;;;;5005395;28;20040;-76
2023/03/18 07:34:08;;;;;;;9.53;4.93;;;;;;;;;;5010187;28;20030;-76
2023/03/18 07:36:37;;;;;;;8.93;4.47;;;;;;;;;;5022383;28;20103;-76
2023/03/18 07:39:03;;;;;;;8.37;4.53;;;;;;;;;;5021667;28;20358;-77
2023/03/18 07:41:29;;;;;;;7.70;4.50;;;;;;;;;;5023964;28;20122;-75
2023/03/18 07:43:58;;;;;;;6.33;4.40;;;;;;;;;;5010086;28;20029;-77
2023/03/18 07:46:24;;;;;;;7.37;4.27;;;;;;;;;;5022793;28;20068;-76
2023/03/18 07:48:50;;;;;;;10.83;4.33;;;;;;;;;;5004826;28;20026;-76
2023/03/18 07:51:18;;;;;;;7.33;4.40;;;;;;;;;;5009949;28;20033;-76
2023/03/18 07:53:45;;;;;;;7.97;3.80;;;;;;;;;;5010393;28;20029;-76
2023/03/18 07:56:11;;;;;;;7.33;3.57;;;;;;;;;;5025315;28;20095;-75
2023/03/18 07:58:37;;;;;;;6.13;3.80;;;;;;;;;;5026507;28;21713;-77
2023/03/18 08:01:06;;;;;;;6.93;3.27;;;;;;;;;;5025220;28;20029;-76
2023/03/18 08:03:32;;;;;;;8.30;3.47;;;;;;;;;;5009361;28;20040;-75
2023/03/18 08:05:59;;;;;;;8.10;2.87;;;;;;;;;;5024880;28;20561;-75
2023/03/18 08:08:25;;;;;;;4.53;3.33;;;;;;;;;;5009473;28;20038;-75
2023/03/18 08:10:55;;;;;;;7.13;3.10;;;;;;;;;;5009568;28;20033;-76
2023/03/18 08:13:21;;;;;;;7.07;3.83;;;;;;;;;;5012930;28;20030;-76
2023/03/18 08:15:47;;;;;;;8.30;3.37;;;;;;;;;;5025737;28;20028;-75
2023/03/18 08:18:14;;;;;;;6.50;3.10;;;;;;;;;;5026969;28;20128;-76
2023/03/18 08:20:40;;;;;;;5.40;3.53;;;;;;;;;;5008021;28;20029;-76
2023/03/18 08:23:06;;;;;;;13.13;3.83;;;;;;;;;;5013007;28;20117;-75
2023/03/18 08:25:33;;;;;;;5.83;2.97;;;;;;;;;;5009052;28;20030;-75
2023/03/18 08:27:59;;;;;;;6.77;2.93;;;;;;;;;;5009146;28;20148;-74
2023/03/18 08:30:27;;;;;;;6.67;3.17;;;;;;;;;;5008386;28;20120;-76
2023/03/18 08:32:54;;;;;;;5.83;2.63;;;;;;;;;;5012376;28;20043;-75
2023/03/18 08:35:20;;;;;;;6.13;2.63;;;;;;;;;;5008966;28;20110;-76
2023/03/18 08:37:47;;;;;;;5.43;3.07;;;;;;;;;;5024682;28;20032;-76
2023/03/18 08:40:16;;;;;;;7.37;3.10;;;;;;;;;;5024298;28;20140;-76
2023/03/18 08:42:45;;;;;;;5.67;2.53;;;;;;;;;;5021466;28;20022;-75
2023/03/18 08:45:12;;;;;;;8.50;2.83;;;;;;;;;;5022206;28;20030;-75
2023/03/18 08:47:37;;;;;;;4.00;2.30;;;;;;;;;;5012457;28;20018;-76
2023/03/18 08:50:04;;;;;;;8.13;3.00;;;;;;;;;;5023173;28;20520;-75
2023/03/18 08:52:31;;;;;;;5.03;2.93;;;;;;;;;;5029796;28;20026;-76
2023/03/18 08:54:57;;;;;;;5.33;2.60;;;;;;;;;;5031332;28;20071;-75
2023/03/18 08:57:23;;;;;;;6.70;3.10;;;;;;;;;;5036940;28;20017;-75
2023/03/18 08:59:50;;;;;;;4.67;2.77;;;;;;;;;;5031630;28;20022;-76
2023/03/18 09:02:16;;;;;;;5.30;2.63;;;;;;;;;;5015778;28;20030;-76
2023/03/18 09:04:42;;;;;;;9.30;3.40;;;;;;;;;;5031671;28;20040;-76
2023/03/18 09:07:09;;;;;;;6.87;2.70;;;;;;;;;;5029509;28;20028;-76
2023/03/18 09:09:35;;;;;;;5.50;2.43;;;;;;;;;;5031562;28;20123;-76
2023/03/18 09:12:04;;;;;;;4.90;2.43;;;;;;;;;;5022916;28;20045;-75
2023/03/18 09:14:31;;;;;;;7.03;3.10;;;;;;;;;;5018834;28;20091;-76
2023/03/18 09:17:03;;;;;;;7.73;2.70;;;;;;;;;;5024955;28;20028;-76
2023/03/18 09:19:29;;;;;;;8.00;3.00;;;;;;;;;;5012194;28;20030;-76
2023/03/18 09:21:56;;;;;;;7.37;3.33;;;;;;;;;;5011720;28;20050;-76
2023/03/18 09:24:22;;;;;;;8.20;3.10;;;;;;;;;;5028605;28;20378;-75
2023/03/18 09:26:48;;;;;;;6.87;3.17;;;;;;;;;;5033073;28;20040;-75
2023/03/18 09:29:14;;;;;;;5.63;2.65;;;;;;;;;;5027253;28;20040;-76
2023/03/18 09:31:40;;;;;;;4.23;2.60;;;;;;;;;;5017807;28;20025;-74
2023/03/18 09:34:06;;;;;;;5.93;2.80;;;;;;;;;;5029764;28;20022;-74
2023/03/18 09:36:32;;;;;;;6.20;2.90;;;;;;;;;;5022202;28;20025;-76
2023/03/18 09:38:59;;;;;;;6.47;2.60;;;;;;;;;;5029172;28;20128;-76
2023/03/18 09:41:37;;;;;;;7.77;3.40;;;;;;;;;;5018539;28;20022;-76
2023/03/18 09:44:22;;;;;;;6.20;2.83;;;;;;;;;;5025567;28;20036;-76
2023/03/18 09:47:04;;;;;;;8.03;2.73;;;;;;;;;;5015495;28;20053;-76
2023/03/18 09:49:46;;;;;;;6.72;2.97;;;;;;;;;;5030755;28;20103;-77
2023/03/18 09:52:12;;;;;;;5.18;3.45;;;;;;;;;;5026308;28;20162;-75
2023/03/18 09:54:49;;;;;;;6.90;2.90;;;;;;;;;;5030342;28;20029;-76
2023/03/18 09:57:18;;;;;;;5.37;3.10;;;;;;;;;;5034769;28;20021;-76
2023/03/18 09:59:49;;;;;;;5.87;3.00;;;;;;;;;;5033443;28;20422;-75
2023/03/18 10:02:22;;;;;;;6.73;2.93;;;;;;;;;;5035024;28;20087;-75
2023/03/18 10:04:56;;;;;;;8.88;3.63;;;;;;;;;;5032381;28;20450;-75
2023/03/18 10:07:24;;;;;;;5.85;2.85;;;;;;;;;;5020412;28;20116;-76
2023/03/18 10:09:54;;;;;;;5.00;2.83;;;;;;;;;;5037291;28;20036;-76
2023/03/18 10:12:24;;;;;;;5.07;2.78;;;;;;;;;;5019329;28;20018;-77
2023/03/18 10:14:52;;;;;;;6.70;3.10;;;;;;;;;;5029022;28;20024;-78
2023/03/18 10:17:28;;;;;;;6.55;2.65;;;;;;;;;;5030602;28;20026;-75
2023/03/18 10:19:55;;;;;;;5.75;2.83;;;;;;;;;;5019325;28;20030;-75
2023/03/18 10:22:32;;;;;;;6.90;2.65;;;;;;;;;;5018035;28;20034;-75
2023/03/18 10:25:11;;;;;;;8.10;3.47;;;;;;;;;;5032399;28;20104;-76
2023/03/18 10:27:47;;;;;;;7.32;3.30;;;;;;;;;;5025005;28;20129;-75
2023/03/18 10:30:34;;;;;;;5.22;2.83;;;;;;;;;;5003572;28;21268;-76
2023/03/18 10:33:08;;;;;;;5.80;2.80;;;;;;;;;;4999827;28;20033;-77
2023/03/18 10:35:37;;;;;;;8.05;3.38;;;;;;;;;;5034212;28;20097;-76
2023/03/18 10:38:09;;;;;;;6.35;3.13;;;;;;;;;;5029333;28;20457;-76
2023/03/18 10:40:36;;;;;;;7.30;3.03;;;;;;;;;;5022605;28;20069;-76
2023/03/18 10:43:03;;;;;;;7.57;3.25;;;;;;;;;;5032685;28;20056;-76
2023/03/18 10:45:33;;;;;;;5.72;2.85;;;;;;;;;;5024883;28;20105;-76
2023/03/18 10:48:09;;;;;;;5.07;2.38;;;;;;;;;;5021282;28;20050;-76
2023/03/18 10:50:36;;;;;;;4.13;2.50;;;;;;;;;;5006759;28;20048;-77
2023/03/18 10:53:29;;;;;;;5.70;2.55;;;;;;;;;;5027360;28;20025;-76
2023/03/18 10:56:07;;;;;;;8.57;3.17;;;;;;;;;;5007379;28;20071;-76
2023/03/18 10:58:36;;;;;;;5.30;2.80;;;;;;;;;;5015946;28;20363;-76
2023/03/18 11:01:04;;;;;;;6.47;2.85;;;;;;;;;;5015997;28;20025;-76
2023/03/18 11:03:33;;;;;;;5.13;2.67;;;;;;;;;;5027178;28;20409;-75
2023/03/18 11:06:01;;;;;;;5.32;2.53;;;;;;;;;;5012105;28;20029;-75
2023/03/18 11:08:38;;;;;;;5.15;2.30;;;;;;;;;;5032868;28;20426;-75
2023/03/18 11:11:24;;;;;;;5.32;2.42;;;;;;;;;;5028714;28;20090;-76
2023/03/18 11:13:54;;;;;;;7.07;2.67;;;;;;;;;;5008300;28;20045;-76
2023/03/18 11:16:24;;;;;;;3.90;1.98;;;;;;;;;;5027355;28;20018;-76
2023/03/18 11:18:51;;;;;;;5.38;2.53;;;;;;;;;;5031797;28;20060;-75
2023/03/18 11:21:18;;;;;;;7.30;2.70;;;;;;;;;;5023135;28;20021;-76
2023/03/18 11:24:07;;;;;;;4.78;1.88;;;;;;;;;;5021376;28;20025;-78
2023/03/18 11:26:43;;;;;;;6.38;2.10;;;;;;;;;;5013879;28;20025;-75
2023/03/18 11:29:13;;;;;;;5.47;1.83;;;;;;;;;;5030797;28;20504;-76
2023/03/18 11:31:56;;;;;;;6.90;1.85;;;;;;;;;;5025035;28;20087;-76
2023/03/18 11:34:22;;;;;;;4.22;1.63;;;;;;;;;;5027367;28;20343;-76
2023/03/18 11:37:05;;;;;;;4.75;2.00;;;;;;;;;;5028421;28;20025;-75
2023/03/18 11:39:32;;;;;;;2.78;1.60;;;;;;;;;;5030591;28;20026;-76
2023/03/18 11:41:59;;;;;;;3.03;1.38;;;;;;;;;;5035678;28;20025;-76
2023/03/18 11:44:30;;;;;;;4.55;1.35;;;;;;;;;;5038155;28;20114;-76
2023/03/18 11:47:19;;;;;;;2.83;1.20;;;;;;;;;;5037347;28;20039;-75
2023/03/18 11:49:45;;;;;;;4.03;1.30;;;;;;;;;;5019920;28;20029;-77
2023/03/18 11:52:29;;;;;;;3.05;1.17;;;;;;;;;;5037266;28;20029;-77
2023/03/18 11:55:02;;;;;;;3.05;1.10;;;;;;;;;;5020829;28;20052;-77
2023/03/18 11:57:29;;;;;;;;;;;;;;;;;;5019770;28;20108;-75
2023/03/18 12:00:01;;;;;;;3.88;1.38;;;;;;;;;;5038284;28;19943;-76
2023/03/18 12:02:50;;;;;;;4.13;1.17;;;;;;;;;;5020912;28;20442;-76
2023/03/18 12:05:37;;;;;;;2.25;1.20;;;;;;;;;;5036593;28;20109;-76
2023/03/18 12:08:06;;;;;;;3.60;1.20;;;;;;;;;;5025860;28;20443;-76
2023/03/18 12:10:37;;;;;;;2.35;1.10;;;;;;;;;;5019071;28;20120;-76
2023/03/18 12:13:21;;;;;;;3.88;1.40;;;;;;;;;;5024351;28;20021;-77
2023/03/18 12:16:26;;;;;;;5.72;1.52;;;;;;;;;;5031152;28;20390;-75
2023/03/18 12:19:09;;;;;;;3.85;1.58;;;;;;;;;;4956759;28;20019;-75
2023/03/18 12:21:35;;;;;;;4.70;1.30;;;;;;;;;;4967447;28;20455;-75
2023/03/18 12:24:14;;;;;;;2.35;0.80;;;;;;;;;;4948230;28;20031;-75
2023/03/18 12:27:12;;;;;;;3.88;1.45;;;;;;;;;;4955847;28;20038;-75
2023/03/18 12:29:41;;;;;;;4.60;1.08;;;;;;;;;;4914980;28;20038;-74
2023/03/18 12:32:30;;;;;;;3.17;1.10;;;;;;;;;;4956718;28;20094;-76
2023/03/18 12:35:14;;;;;;;3.55;0.80;;;;;;;;;;4975106;28;20061;-75
2023/03/18 12:38:00;;;;;;;1.80;1.02;;;;;;;;;;4976452;28;20035;-75
2023/03/18 12:40:44;;;;;;;2.05;0.80;;;;;;;;;;4962573;28;20027;-75
2023/03/18 12:43:26;;;;;;;3.08;0.98;;;;;;;;;;4958200;28;20050;-75
2023/03/18 12:45:57;;;;;;;2.88;1.02;;;;;;;;;;4965630;28;20054;-75
2023/03/18 12:48:27;;;;;;;2.08;1.30;;;;;;;;;;4967837;28;20041;-75
2023/03/18 12:50:57;;;;;;;4.38;1.40;;;;;;;;;;5026448;28;20104;-75
2023/03/18 12:53:23;;;;;;;2.38;1.08;;;;;;;;;;5012194;28;20080;-75
2023/03/18 12:55:52;;;;;;;6.95;1.60;;;;;;;;;;5008948;28;20029;-74
2023/03/18 12:58:30;;;;;;;5.43;1.63;;;;;;;;;;5030106;28;20501;-75
2023/03/18 13:00:56;;;;;;;5.82;1.50;;;;;;;;;;5026718;28;20025;-75
2023/03/18 13:03:34;;;;;;;3.28;1.05;;;;;;;;;;5007089;28;20592;-74
2023/03/18 13:06:13;;;;;;;2.72;1.17;;;;;;;;;;5024361;28;20025;-74
2023/03/18 13:08:42;;;;;;;2.83;1.25;;;;;;;;;;5006213;28;20037;-75
2023/03/18 13:11:10;;;;;;;3.13;1.00;;;;;;;;;;5025180;28;20069;-75
2023/03/18 13:13:40;;;;;;;4.43;0.90;;;;;;;;;;5014900;28;20022;-75
2023/03/18 13:16:07;;;;;;;3.15;1.17;;;;;;;;;;5013760;28;20060;-74
2023/03/18 13:18:38;;;;;;;8.35;1.95;;;;;;;;;;5007534;28;20171;-75
2023/03/18 13:21:07;;;;;;;8.93;1.67;;;;;;;;;;5023071;28;20044;-76
2023/03/18 13:24:03;;;;;;;11.20;1.95;;;;;;;;;;5024687;28;20512;-76
2023/03/18 13:26:32;;;;;;;7.05;1.52;;;;;;;;;;4990940;28;20041;-77
2023/03/18 13:28:58;;;;;;;2.97;1.40;;;;;;;;;;5025195;28;20034;-76
2023/03/18 13:31:37;;;;;;;3.30;1.33;;;;;;;;;;5027440;28;20366;-77
2023/03/18 13:34:27;;;;;;;3.65;1.60;;;;;;;;;;5026592;28;20057;-77
2023/03/18 13:37:06;;;;;;;4.18;1.90;;;;;;;;;;5025928;28;20026;-77
2023/03/18 13:39:38;;;;;;;4.32;1.58;;;;;;;;;;5012493;28;21773;-77
2023/03/18 13:42:10;;;;;;;6.60;1.30;;;;;;;;;;5024966;28;20034;-75
2023/03/18 13:44:40;;;;;;;5.40;1.48;;;;;;;;;;5029072;28;20095;-77
2023/03/18 13:47:07;;;;;;;4.55;1.30;;;;;;;;;;5026785;28;20098;-77
2023/03/18 13:49:36;;;;;;;5.85;1.67;;;;;;;;;;5025632;28;20462;-77
2023/03/18 13:52:03;;;;;;;5.72;1.48;;;;;;;;;;5024133;28;20124;-77
2023/03/18 13:54:40;;;;;;;6.65;1.38;;;;;;;;;;5009765;28;20075;-76
2023/03/18 13:57:17;;;;;;;4.47;1.50;;;;;;;;;;5010444;28;20124;-75
2023/03/18 13:59:44;;;;;;;5.43;1.80;;;;;;;;;;5011691;28;20075;-76
2023/03/18 14:02:31;;;;;;;5.63;1.55;;;;;;;;;;5024809;28;20112;-76
2023/03/18 14:04:58;;;;;;;5.18;1.88;;;;;;;;;;5009706;28;20048;-75
2023/03/18 14:07:24;;;;;;;3.30;1.45;;;;;;;;;;5023942;28;20037;-76
2023/03/18 14:09:57;;;;;;;5.15;1.42;;;;;;;;;;5010241;28;20088;-76
2023/03/18 14:12:23;;;;;;;4.80;1.40;;;;;;;;;;5012692;28;20026;-77
2023/03/18 14:15:04;;;;;;;4.47;2.30;;;;;;;;;;5024136;28;20120;-75
2023/03/18 14:17:32;;;;;;;5.35;1.40;;;;;;;;;;5005074;28;20091;-75
2023/03/18 14:20:02;;;;;;;8.43;2.15;;;;;;;;;;5023531;28;20029;-76
2023/03/18 14:22:35;;;;;;;4.90;1.67;;;;;;;;;;5019868;28;20026;-75
2023/03/18 14:25:12;;;;;;;3.70;1.50;;;;;;;;;;5019531;28;20029;-75
2023/03/18 14:28:05;;;;;;;3.05;1.55;;;;;;;;;;5007046;28;20069;-75
2023/03/18 14:30:33;;;;;;;11.70;2.28;;;;;;;;;;5000949;28;20044;-76
2023/03/18 14:33:01;;;;;;;6.18;1.48;;;;;;;;;;5019804;28;20071;-75
2023/03/18 14:35:29;;;;;;;5.43;1.73;;;;;;;;;;5021561;28;20036;-75
2023/03/18 14:38:19;;;;;;;4.50;1.70;;;;;;;;;;5007195;28;20512;-76
2023/03/18 14:40:46;;;;;;;4.32;1.50;;;;;;;;;;4995935;28;20194;-74
2023/03/18 14:43:18;;;;;;;2.83;1.45;;;;;;;;;;5019145;28;20061;-74
2023/03/18 14:45:48;;;;;;;6.38;1.98;;;;;;;;;;5008184;28;20047;-75
2023/03/18 14:48:23;;;;;;;6.57;1.67;;;;;;;;;;5021735;28;20036;-76